Time;durP1;ratioP1;P1;durP2;ratioP2;P2;SDS_P1;SDS_P2;PMS_P1;PMS_P2;Temp;Humidity;BMP_temperature;BMP_pressure;BME280_temperature;BME280_humidity;BME280_pressure;Samples;Min_cycle;Max_cycle;Signal;HPM_P1;HPM_P2
2022/06/18 00:00:18;;;;;;;1999.90;999.90;;;;;;;20.86;44.00;96048.84;5029578;28;20030;-68
2022/06/18 00:02:44;;;;;;;1999.90;999.90;;;;;;;21.00;44.14;96070.06;5029775;28;20108;-67
2022/06/18 00:05:12;;;;;;;1999.90;999.90;;;;;;;21.11;44.10;96078.44;5029517;28;20060;-67
2022/06/18 00:07:42;;;;;;;1999.90;999.90;;;;;;;20.98;44.49;96072.31;5029352;28;20506;-67
2022/06/18 00:10:12;;;;;;;1999.90;999.90;;;;;;;21.05;44.01;96067.09;5028928;28;20182;-67
2022/06/18 00:15:25;;;;;;;1999.90;999.90;;;;;;;20.92;44.37;96060.19;5029897;28;20048;-68
2022/06/18 00:17:51;;;;;;;1999.90;999.90;;;;;;;20.79;44.44;96066.81;5029599;28;20051;-67
2022/06/18 00:20:19;;;;;;;1999.90;999.90;;;;;;;20.40;44.45;96001.66;5029121;28;20108;-67
2022/06/18 00:22:48;;;;;;;1999.90;999.90;;;;;;;20.80;44.38;96069.16;5029566;28;20488;-68
2022/06/18 00:25:21;;;;;;;1999.90;999.90;;;;;;;20.74;44.72;96068.63;5029334;28;20072;-67
2022/06/18 00:27:47;;;;;;;1999.90;999.90;;;;;;;20.74;44.56;96071.34;5029497;28;20105;-67
2022/06/18 00:30:16;;;;;;;1999.90;999.90;;;;;;;20.57;44.65;96046.53;5027978;28;20021;-68
2022/06/18 00:32:41;;;;;;;1999.90;999.90;;;;;;;20.66;44.77;96063.38;5028081;28;20037;-68
2022/06/18 00:35:07;;;;;;;1999.90;999.90;;;;;;;20.63;44.55;96045.94;5029381;28;20621;-68
2022/06/18 00:37:33;;;;;;;1999.90;999.90;;;;;;;20.75;44.61;96067.50;5028336;28;20025;-67
2022/06/18 00:39:58;;;;;;;1999.90;999.90;;;;;;;20.70;44.79;96067.75;5029320;28;20352;-67
2022/06/18 00:42:30;;;;;;;1999.90;999.90;;;;;;;20.39;44.99;96033.28;5029301;28;20026;-68
2022/06/18 00:44:57;;;;;;;;;;;;;;;20.68;44.85;96069.25;5029908;28;20026;-67
2022/06/18 00:48:01;;;;;;;1999.90;999.90;;;;;;;20.64;45.09;96069.13;5028006;28;19998;-68
2022/06/18 00:50:37;;;;;;;1999.90;999.90;;;;;;;20.38;45.08;96039.06;5028991;28;20056;-67
2022/06/18 00:53:15;;;;;;;1999.90;999.90;;;;;;;20.56;45.06;96061.97;5029320;28;20497;-67
2022/06/18 00:55:47;;;;;;;1999.90;999.90;;;;;;;20.32;45.13;96029.59;5027773;28;20021;-67
2022/06/18 00:58:30;;;;;;;1999.90;999.90;;;;;;;20.31;45.08;96036.94;5029308;28;20025;-67
2022/06/18 01:00:58;;;;;;;1999.90;999.90;;;;;;;20.26;45.30;96029.06;5028878;28;20021;-67
2022/06/18 01:03:32;;;;;;;1999.90;999.90;;;;;;;20.17;45.80;96034.63;5029408;28;20063;-68
2022/06/18 01:06:02;;;;;;;1999.90;999.90;;;;;;;20.33;45.79;96050.13;5027953;28;20053;-67
2022/06/18 01:08:30;;;;;;;1999.90;999.90;;;;;;;20.29;45.83;96049.22;5029162;28;20038;-68
2022/06/18 01:11:00;;;;;;;1999.90;999.90;;;;;;;20.43;45.59;96074.72;5028842;28;20381;-68
2022/06/18 01:13:31;;;;;;;1999.90;999.90;;;;;;;20.46;45.83;96065.13;5029118;28;20037;-67
2022/06/18 01:15:57;;;;;;;1999.90;999.90;;;;;;;20.25;45.70;96036.38;5029137;28;20072;-68
2022/06/18 01:18:23;;;;;;;1999.90;999.90;;;;;;;20.38;45.67;96064.16;5028911;28;20029;-68
2022/06/18 01:20:52;;;;;;;1999.90;999.90;;;;;;;20.26;45.74;96048.75;5028563;28;20024;-68
2022/06/18 01:23:26;;;;;;;1999.90;999.90;;;;;;;20.32;45.73;96065.53;5028783;28;20127;-67
2022/06/18 01:25:53;;;;;;;1999.90;999.90;;;;;;;20.17;45.86;96047.34;5028990;28;20026;-68
2022/06/18 01:28:19;;;;;;;1999.90;999.90;;;;;;;20.16;45.88;96051.16;5031541;28;20498;-67
2022/06/18 01:30:45;;;;;;;1999.90;999.90;;;;;;;20.25;45.73;96068.81;5032316;28;20040;-67
2022/06/18 01:33:12;;;;;;;1999.90;999.90;;;;;;;20.05;45.79;96041.97;5032273;28;20021;-67
2022/06/18 01:35:40;;;;;;;1999.90;999.90;;;;;;;20.17;45.98;96068.97;5032453;28;20021;-67
2022/06/18 01:38:05;;;;;;;1999.90;999.90;;;;;;;20.11;45.94;96076.50;5031368;28;20064;-67
2022/06/18 01:40:39;;;;;;;1999.90;999.90;;;;;;;20.05;45.95;96061.66;5031822;28;20068;-67
2022/06/18 01:43:07;;;;;;;1999.90;999.90;;;;;;;20.06;45.87;96074.03;5032401;28;20021;-67
2022/06/18 01:45:35;;;;;;;1999.90;999.90;;;;;;;20.02;46.06;96059.66;5031118;28;20057;-67
2022/06/18 01:48:40;;;;;;;1999.90;999.90;;;;;;;20.05;46.41;96072.47;5032146;28;20025;-68
2022/06/18 01:51:11;;;;;;;1999.90;999.90;;;;;;;20.00;46.40;96053.81;5028865;28;20045;-67
2022/06/18 01:53:43;;;;;;;1999.90;999.90;;;;;;;19.86;46.38;96018.28;5032181;28;20462;-67
2022/06/18 01:56:15;;;;;;;1999.90;999.90;;;;;;;19.93;46.16;96032.78;5032095;28;20042;-67
2022/06/18 01:58:46;;;;;;;1999.90;999.90;;;;;;;19.81;46.39;96015.81;5030598;28;20022;-67
2022/06/18 02:01:18;;;;;;;1999.90;999.90;;;;;;;20.06;46.39;96051.66;5031638;28;20033;-67
2022/06/18 02:03:43;;;;;;;1999.90;999.90;;;;;;;19.84;46.33;96024.03;5030541;28;20021;-67
2022/06/18 02:06:09;;;;;;;1999.90;999.90;;;;;;;19.68;46.43;96004.28;5031727;28;20155;-68
2022/06/18 02:08:35;;;;;;;1999.90;999.90;;;;;;;19.59;46.48;96000.88;5031695;28;20025;-67
2022/06/18 02:11:05;;;;;;;1999.90;999.90;;;;;;;19.86;46.75;96037.19;5031257;28;20104;-68
2022/06/18 02:13:38;;;;;;;1999.90;999.90;;;;;;;19.81;47.26;96038.22;5031531;28;20022;-68
2022/06/18 02:16:10;;;;;;;1999.90;999.90;;;;;;;19.73;47.31;96017.53;5031726;28;20033;-68
2022/06/18 02:18:37;;;;;;;1999.90;999.90;;;;;;;19.79;47.31;96024.28;5031589;28;20021;-67
2022/06/18 02:21:07;;;;;;;1999.90;999.90;;;;;;;19.79;47.45;96018.09;5029773;28;20026;-68
2022/06/18 02:23:33;;;;;;;1999.90;999.90;;;;;;;19.63;47.18;96002.59;5031441;28;20032;-67
2022/06/18 02:25:59;;;;;;;1999.90;999.90;;;;;;;19.80;47.24;96033.16;5031507;28;20021;-67
2022/06/18 02:28:30;;;;;;;1999.90;999.90;;;;;;;19.80;47.23;96027.75;5030793;28;20075;-68
2022/06/18 02:30:58;;;;;;;1999.90;999.90;;;;;;;19.74;47.30;96019.09;5028845;28;20026;-67
2022/06/18 02:33:31;;;;;;;1999.90;999.90;;;;;;;19.69;47.34;96014.72;5029792;28;20390;-67
2022/06/18 02:36:00;;;;;;;1999.90;999.90;;;;;;;19.74;47.23;96019.88;5030007;28;20105;-67
2022/06/18 02:38:25;;;;;;;1999.90;999.90;;;;;;;19.51;47.37;95994.50;5030527;28;20037;-67
2022/06/18 02:40:51;;;;;;;1999.90;999.90;;;;;;;19.65;47.56;96021.94;5030575;28;20025;-68
2022/06/18 02:43:19;;;;;;;1999.90;999.90;;;;;;;19.48;47.68;96000.56;5029923;28;20463;-67
2022/06/18 02:45:49;;;;;;;1999.90;999.90;;;;;;;19.54;47.77;96004.59;5030056;28;20017;-68
2022/06/18 02:48:15;;;;;;;1999.90;999.90;;;;;;;19.62;47.87;96028.03;5031162;28;20507;-67
2022/06/18 02:50:42;;;;;;;1999.90;999.90;;;;;;;19.59;47.96;96025.19;5030644;28;20029;-67
2022/06/18 02:53:09;;;;;;;1999.90;999.90;;;;;;;19.51;48.23;96024.19;5029362;28;20025;-68
2022/06/18 02:55:45;;;;;;;1999.90;999.90;;;;;;;19.57;48.38;96028.22;5030181;28;20021;-67
2022/06/18 02:58:18;;;;;;;1999.90;999.90;;;;;;;19.56;48.40;96020.47;5029463;28;20026;-69
2022/06/18 03:00:53;;;;;;;1999.90;999.90;;;;;;;19.54;48.29;96030.81;5029124;28;20025;-68
2022/06/18 03:03:23;;;;;;;1999.90;999.90;;;;;;;19.52;48.29;96024.97;5030931;28;20080;-67
2022/06/18 03:05:52;;;;;;;1999.90;999.90;;;;;;;19.40;48.13;96015.78;5029364;28;20021;-67
2022/06/18 03:08:18;;;;;;;1999.90;999.90;;;;;;;19.23;48.43;95995.19;5029370;28;20029;-68
2022/06/18 03:13:27;;;;;;;1999.90;999.90;;;;;;;19.41;48.15;96009.25;5030873;28;20037;-67
2022/06/18 03:15:55;;;;;;;1999.90;999.90;;;;;;;19.42;48.22;96013.50;5030956;28;20026;-67
2022/06/18 03:18:24;;;;;;;1999.90;999.90;;;;;;;19.48;48.26;96005.97;5030352;28;20084;-67
2022/06/18 03:20:59;;;;;;;1999.90;999.90;;;;;;;19.55;47.92;96014.31;5029844;28;20053;-67
2022/06/18 03:23:26;;;;;;;1999.90;999.90;;;;;;;19.62;47.88;96021.84;5030429;28;20029;-67
2022/06/18 03:25:52;;;;;;;1999.90;999.90;;;;;;;19.45;48.21;95990.47;5030326;28;20026;-68
2022/06/18 03:28:20;;;;;;;1999.90;999.90;;;;;;;19.54;47.98;95999.22;5030407;28;20090;-67
2022/06/18 03:30:45;;;;;;;1999.90;999.90;;;;;;;19.59;48.03;96003.59;5029996;28;20025;-67
2022/06/18 03:33:12;;;;;;;1999.90;999.90;;;;;;;19.70;48.00;96018.22;5030061;28;20029;-68
2022/06/18 03:35:39;;;;;;;1999.90;999.90;;;;;;;19.79;48.04;96020.78;5029042;28;20021;-67
2022/06/18 03:38:05;;;;;;;1999.90;999.90;;;;;;;19.77;47.92;96012.25;5030534;28;20100;-67
2022/06/18 03:40:30;;;;;;;1999.90;999.90;;;;;;;19.77;47.84;96004.16;5028387;28;20168;-68
2022/06/18 03:42:55;;;;;;;1999.90;999.90;;;;;;;19.72;47.42;95987.06;5028939;28;20496;-67
2022/06/18 03:45:21;;;;;;;1999.90;999.90;;;;;;;19.94;47.36;96014.66;5029086;28;20113;-67
2022/06/18 03:47:48;;;;;;;1999.90;999.90;;;;;;;19.98;47.18;96012.88;5029065;28;20033;-67
2022/06/18 03:50:16;;;;;;;1999.90;999.90;;;;;;;20.05;47.08;96017.66;5028548;28;20026;-67
2022/06/18 03:52:42;;;;;;;1999.90;999.90;;;;;;;20.16;47.03;96013.34;5028368;28;20025;-67
2022/06/18 03:55:11;;;;;;;1999.90;999.90;;;;;;;20.19;46.58;96010.75;5028616;28;20611;-68
2022/06/18 03:57:36;;;;;;;1999.90;999.90;;;;;;;20.19;46.63;95981.03;5028747;28;20028;-67
2022/06/18 04:00:07;;;;;;;1999.90;999.90;;;;;;;20.15;46.00;95969.34;5028020;28;20025;-70
2022/06/18 04:02:32;;;;;;;1999.90;999.90;;;;;;;20.38;46.19;95987.72;5029333;28;20512;-68
2022/06/18 04:04:58;;;;;;;1999.90;999.90;;;;;;;20.63;45.98;95988.41;5028364;28;20026;-67
2022/06/18 04:07:24;;;;;;;1999.90;999.90;;;;;;;21.01;44.98;96006.72;5029614;28;20025;-67
2022/06/18 04:09:52;;;;;;;1999.90;999.90;;;;;;;21.26;44.31;96005.38;5029648;28;20053;-67
2022/06/18 04:12:17;;;;;;;1999.90;999.90;;;;;;;21.40;43.57;95991.44;5028471;28;20017;-67
2022/06/18 04:14:43;;;;;;;1999.90;999.90;;;;;;;21.62;43.12;96010.84;5029664;28;20110;-67
2022/06/18 04:17:14;;;;;;;1999.90;999.90;;;;;;;22.01;43.15;96007.06;5028159;28;20017;-67
2022/06/18 04:19:40;;;;;;;1999.90;999.90;;;;;;;22.13;42.06;95980.97;5029455;28;20013;-68
2022/06/18 04:22:05;;;;;;;1999.90;999.90;;;;;;;22.54;42.02;95996.47;5027811;28;20033;-68
2022/06/18 04:24:30;;;;;;;1999.90;999.90;;;;;;;22.81;41.08;96000.03;5029128;28;20040;-68
2022/06/18 04:26:56;;;;;;;1999.90;999.90;;;;;;;23.01;40.82;95978.28;5028433;28;20022;-68
2022/06/18 04:29:21;;;;;;;1999.90;999.90;;;;;;;23.22;40.43;95962.34;5029283;28;20033;-68
2022/06/18 04:31:46;;;;;;;1999.90;999.90;;;;;;;23.30;39.72;95928.72;5027864;28;20022;-68
2022/06/18 04:34:12;;;;;;;1999.90;999.90;;;;;;;23.86;39.64;95973.34;5029149;28;20025;-68
2022/06/18 04:36:39;;;;;;;1999.90;999.90;;;;;;;24.18;38.71;95986.53;5029346;28;20029;-68
2022/06/18 04:39:05;;;;;;;1999.90;999.90;;;;;;;24.13;38.55;95958.50;5028132;28;20017;-67
2022/06/18 04:41:31;;;;;;;1999.90;999.90;;;;;;;24.33;38.35;95969.22;5028756;28;20028;-68
2022/06/18 04:43:58;;;;;;;1999.90;999.90;;;;;;;24.13;38.22;95914.25;5029336;28;20053;-68
2022/06/18 04:46:23;;;;;;;1999.90;999.90;;;;;;;24.74;37.67;95978.19;5029030;28;20022;-68
2022/06/18 04:48:49;;;;;;;1999.90;999.90;;;;;;;24.68;37.59;95947.06;5029257;28;20530;-68
2022/06/18 04:51:14;;;;;;;1999.90;999.90;;;;;;;24.95;37.07;95974.88;5027428;28;20048;-68
2022/06/18 04:53:40;;;;;;;1999.90;999.90;;;;;;;24.96;36.68;95975.66;5029069;28;20032;-68
2022/06/18 04:56:06;;;;;;;1999.90;999.90;;;;;;;25.25;36.83;96006.66;5029217;28;20025;-68
2022/06/18 04:58:31;;;;;;;1999.90;999.90;;;;;;;24.98;36.93;95924.34;5029193;28;20071;-68
2022/06/18 05:00:58;;;;;;;1999.90;999.90;;;;;;;25.31;36.82;95959.63;5028733;28;20386;-68
2022/06/18 05:03:24;;;;;;;1999.90;999.90;;;;;;;25.42;36.47;95955.00;5032024;28;20025;-67
2022/06/18 05:05:49;;;;;;;1999.90;999.90;;;;;;;25.71;35.99;95987.88;5031651;28;20032;-69
2022/06/18 05:08:15;;;;;;;1999.90;999.90;;;;;;;25.70;36.06;95956.34;5033066;28;20036;-69
2022/06/18 05:10:40;;;;;;;1999.90;999.90;;;;;;;25.83;35.47;95965.00;5032376;28;20018;-68
2022/06/18 05:13:06;;;;;;;1999.90;999.90;;;;;;;25.66;35.48;95931.78;5032786;28;20359;-68
2022/06/18 05:15:33;;;;;;;1999.90;999.90;;;;;;;25.99;35.38;95995.44;5032663;28;20501;-68
2022/06/18 05:17:59;;;;;;;1999.90;999.90;;;;;;;25.77;35.45;95947.44;5032895;28;20108;-68
2022/06/18 05:20:25;;;;;;;1999.90;999.90;;;;;;;25.93;35.50;95970.47;5030819;28;20330;-68
2022/06/18 05:22:51;;;;;;;1999.90;999.90;;;;;;;25.89;35.48;95961.50;5032499;28;20029;-68
2022/06/18 05:25:17;;;;;;;1999.90;999.90;;;;;;;25.99;35.58;95986.47;5032667;28;20374;-68
2022/06/18 05:27:44;;;;;;;1999.90;999.90;;;;;;;25.73;35.74;95925.59;5031337;28;20036;-68
2022/06/18 05:30:14;;;;;;;1999.90;999.90;;;;;;;26.35;35.47;96003.75;5032264;28;20060;-69
2022/06/18 05:32:39;;;;;;;1999.90;999.90;;;;;;;26.09;35.51;95934.72;5032333;28;20099;-68
2022/06/18 05:35:05;;;;;;;1999.90;999.90;;;;;;;26.09;34.84;95937.44;5031246;28;20029;-68
2022/06/18 05:37:32;;;;;;;1999.90;999.90;;;;;;;26.26;35.18;95957.75;5032285;28;20025;-68
2022/06/18 05:39:58;;;;;;;1999.90;999.90;;;;;;;26.17;35.32;95924.63;5032166;28;20025;-68
2022/06/18 05:42:24;;;;;;;1999.90;999.90;;;;;;;26.49;35.43;95953.94;5030797;28;20056;-69
2022/06/18 05:44:49;;;;;;;1999.90;999.90;;;;;;;26.90;35.09;95996.09;5032220;28;20029;-68
2022/06/18 05:47:21;;;;;;;1999.90;999.90;;;;;;;26.81;34.73;95962.94;5032303;28;20032;-68
2022/06/18 05:49:46;;;;;;;1999.90;999.90;;;;;;;27.13;34.65;96005.91;5031054;28;20113;-68
2022/06/18 05:52:12;;;;;;;1999.90;999.90;;;;;;;26.74;33.98;95941.09;5030495;28;20120;-68
2022/06/18 05:54:37;;;;;;;1999.90;999.90;;;;;;;26.96;34.39;95969.97;5032205;28;20412;-69
2022/06/18 05:57:04;;;;;;;1999.90;999.90;;;;;;;26.74;34.67;95941.09;5032165;28;20063;-68
2022/06/18 05:59:30;;;;;;;1999.90;999.90;;;;;;;26.82;35.00;95945.41;5032045;28;20036;-69
2022/06/18 06:01:56;;;;;;;1999.90;999.90;;;;;;;27.17;34.37;95966.47;5031530;28;20510;-69
2022/06/18 06:04:23;;;;;;;1999.90;999.90;;;;;;;26.97;34.03;95935.25;5031779;28;20022;-69
2022/06/18 06:06:48;;;;;;;1999.90;999.90;;;;;;;26.82;34.06;95939.94;5032144;28;20530;-69
2022/06/18 06:11:28;;;;;;;1999.90;999.90;;;;;;;27.28;33.77;96001.19;5031926;28;20056;-69
2022/06/18 06:11:59;;;;;;;1999.90;999.90;;;;;;;27.19;33.49;95955.19;5031243;28;20523;-68
2022/06/18 06:14:24;;;;;;;1999.90;999.90;;;;;;;27.54;33.92;95992.59;5031434;28;20104;-68
2022/06/18 06:16:50;;;;;;;1999.90;999.90;;;;;;;27.67;33.71;95995.69;5030662;28;20033;-68
2022/06/18 06:19:15;;;;;;;1999.90;999.90;;;;;;;27.37;33.49;95957.88;5031856;28;20030;-69
2022/06/18 06:21:41;;;;;;;1999.90;999.90;;;;;;;27.38;33.92;95938.38;5031148;28;20026;-68
2022/06/18 06:24:06;;;;;;;1999.90;999.90;;;;;;;27.56;33.79;95967.59;5030147;28;20120;-69
2022/06/18 06:26:35;;;;;;;1999.90;999.90;;;;;;;27.43;33.72;95913.34;5031400;28;20113;-69
2022/06/18 06:29:01;;;;;;;1999.90;999.90;;;;;;;27.81;33.30;95953.91;5031322;28;20083;-68
2022/06/18 06:31:27;;;;;;;1999.90;999.90;;;;;;;28.21;33.45;95997.09;5031207;28;20030;-69
2022/06/18 06:33:52;;;;;;;1999.90;999.90;;;;;;;28.29;32.91;96005.28;5031232;28;20037;-69
2022/06/18 06:36:17;;;;;;;1999.90;999.90;;;;;;;28.03;32.81;95951.84;5031440;28;20471;-69
2022/06/18 06:38:43;;;;;;;1999.90;999.90;;;;;;;28.19;33.02;95971.31;5031005;28;20159;-69
2022/06/18 06:41:23;;;;;;;1999.90;999.90;;;;;;;28.18;33.21;95947.88;5030911;28;20083;-69
2022/06/18 06:43:49;;;;;;;1999.90;999.90;;;;;;;28.12;32.56;95935.78;5031179;28;20026;-69
2022/06/18 06:46:15;;;;;;;1999.90;999.90;;;;;;;28.49;31.93;96003.63;5029821;28;20407;-69
2022/06/18 06:48:42;;;;;;;1999.90;999.90;;;;;;;28.28;31.06;95949.78;5031080;28;20088;-69
2022/06/18 06:51:13;;;;;;;1999.90;999.90;;;;;;;28.58;31.25;96000.47;5030573;28;20393;-69
2022/06/18 06:53:39;;;;;;;;;;;;;;;28.52;31.12;95991.13;5031489;28;20025;-68
2022/06/18 06:58:49;;;;;;;1999.90;999.90;;;;;;;28.19;32.02;95939.25;5031307;28;20163;-69
2022/06/18 07:01:15;;;;;;;1999.90;999.90;;;;;;;28.32;31.98;95944.28;5030150;28;20025;-68
2022/06/18 07:03:40;;;;;;;1999.90;999.90;;;;;;;28.29;31.06;95942.34;5030814;28;20024;-68
2022/06/18 07:06:06;;;;;;;1999.90;999.90;;;;;;;28.18;31.04;95975.22;5031010;28;20502;-68
2022/06/18 07:08:32;;;;;;;1999.90;999.90;;;;;;;28.09;30.59;95915.47;5030500;28;20032;-68
2022/06/18 07:10:58;;;;;;;1999.90;999.90;;;;;;;28.35;30.91;95935.28;5030522;28;20021;-68
2022/06/18 07:13:23;;;;;;;1999.90;999.90;;;;;;;28.73;30.88;95989.03;5030591;28;20433;-69
2022/06/18 07:15:50;;;;;;;1999.90;999.90;;;;;;;28.50;30.78;95923.84;5030985;28;20088;-69
2022/06/18 07:18:21;;;;;;;1999.90;999.90;;;;;;;28.48;30.17;95917.25;5030453;28;20021;-68
2022/06/18 07:20:46;;;;;;;1999.90;999.90;;;;;;;28.61;29.71;95939.44;5030289;28;20021;-69
2022/06/18 07:23:12;;;;;;;1999.90;999.90;;;;;;;28.68;29.54;95917.50;5030353;28;20381;-68
2022/06/18 07:25:38;;;;;;;1999.90;999.90;;;;;;;28.72;30.24;95912.78;5030097;28;20063;-69
2022/06/18 07:28:04;;;;;;;1999.90;999.90;;;;;;;29.06;29.17;95964.94;5030323;28;20117;-69
2022/06/18 07:30:30;;;;;;;1999.90;999.90;;;;;;;28.74;29.15;95888.50;5029833;28;20442;-69
2022/06/18 07:32:55;;;;;;;1999.90;999.90;;;;;;;28.92;28.60;95904.75;5030172;28;20026;-69
2022/06/18 07:35:26;;;;;;;1999.90;999.90;;;;;;;29.06;29.13;95901.94;5030281;28;20052;-69
2022/06/18 07:37:54;;;;;;;1999.90;999.90;;;;;;;29.34;28.92;95913.81;5028920;28;20112;-69
2022/06/18 07:40:20;;;;;;;1999.90;999.90;;;;;;;29.47;29.09;95906.63;5029655;28;20025;-69
2022/06/18 07:42:48;;;;;;;1999.90;999.90;;;;;;;29.47;28.74;95895.66;5029793;28;20371;-69
2022/06/18 07:45:20;;;;;;;1999.90;999.90;;;;;;;29.44;28.08;95894.53;5030069;28;20027;-69
2022/06/18 07:47:46;;;;;;;1999.90;999.90;;;;;;;29.06;28.36;95903.91;5030178;28;20083;-70
2022/06/18 07:50:12;;;;;;;1999.90;999.90;;;;;;;29.81;27.80;95927.81;5029440;28;20036;-69
2022/06/18 07:52:38;;;;;;;1999.90;999.90;;;;;;;29.57;26.60;95866.59;5029271;28;21410;-69
2022/06/18 07:55:05;;;;;;;1999.90;999.90;;;;;;;29.67;26.29;95901.34;5029716;28;20034;-69
2022/06/18 07:57:30;;;;;;;1999.90;999.90;;;;;;;29.71;26.83;95871.91;5029897;28;20028;-69
2022/06/18 07:59:56;;;;;;;1999.90;999.90;;;;;;;29.43;26.53;95878.47;5029313;28;20025;-68
2022/06/18 08:02:22;;;;;;;1999.90;999.90;;;;;;;29.45;27.43;95930.94;5029380;28;20036;-69
2022/06/18 08:04:47;;;;;;;1999.90;999.90;;;;;;;29.49;26.75;95863.94;5029717;28;20029;-69
2022/06/18 08:07:12;;;;;;;1999.90;999.90;;;;;;;29.85;27.05;95873.72;5029391;28;20028;-68
2022/06/18 08:09:38;;;;;;;1999.90;999.90;;;;;;;30.06;25.89;95880.88;5029796;28;20021;-69
2022/06/18 08:12:05;;;;;;;1999.90;999.90;;;;;;;30.24;26.38;95875.94;5029262;28;20021;-69
2022/06/18 08:14:30;;;;;;;1999.90;999.90;;;;;;;30.56;26.07;95878.22;5029553;28;20028;-69
2022/06/18 08:16:56;;;;;;;1999.90;999.90;;;;;;;30.63;26.93;95896.53;5029542;28;20108;-69
2022/06/18 08:19:21;;;;;;;1999.90;999.90;;;;;;;29.76;25.10;95876.94;5029538;28;20462;-69
2022/06/18 08:21:46;;;;;;;1999.90;999.90;;;;;;;29.31;25.31;95855.13;5029153;28;20022;-69
2022/06/18 08:24:17;;;;;;;1999.90;999.90;;;;;;;30.40;25.68;95927.47;5028009;28;20028;-68
2022/06/18 08:26:44;;;;;;;1999.90;999.90;;;;;;;30.67;26.44;95895.28;5029290;28;20044;-70
2022/06/18 08:29:14;;;;;;;1999.90;999.90;;;;;;;30.13;25.44;95919.97;5029462;28;20482;-69
2022/06/18 08:31:39;;;;;;;1999.90;999.90;;;;;;;30.84;25.14;95904.47;5029086;28;20065;-69
2022/06/18 08:34:05;;;;;;;1999.90;999.90;;;;;;;31.13;25.16;95906.75;5029241;28;20049;-69
2022/06/18 08:36:32;;;;;;;1999.90;999.90;;;;;;;31.23;23.21;95903.03;5029314;28;20037;-69
2022/06/18 08:38:58;;;;;;;1999.90;999.90;;;;;;;31.19;23.90;95881.09;5033570;28;20422;-69
2022/06/18 08:41:38;;;;;;;1999.90;999.90;;;;;;;31.56;23.74;95910.28;5033084;28;20024;-69
2022/06/18 08:44:25;;;;;;;1999.90;999.90;;;;;;;31.70;23.07;95903.72;5033528;28;20025;-69
2022/06/18 08:47:16;;;;;;;1999.90;999.90;;;;;;;31.48;23.04;95861.31;5032333;28;20056;-70
2022/06/18 08:50:01;;;;;;;1999.90;999.90;;;;;;;31.82;23.97;95903.09;5033335;28;20478;-69
2022/06/18 08:52:39;;;;;;;1999.90;999.90;;;;;;;31.77;23.79;95886.28;5033149;28;20100;-70
2022/06/18 08:55:10;;;;;;;1999.90;999.90;;;;;;;31.93;24.04;95880.09;5033175;28;20067;-69
2022/06/18 08:57:39;;;;;;;;;;;;;;;31.86;23.89;95907.78;5033846;28;20473;-70
2022/06/18 09:00:11;;;;;;;1999.90;999.90;;;;;;;31.20;24.13;95876.38;5032860;28;19913;-70
2022/06/18 09:02:56;;;;;;;1999.90;999.90;;;;;;;30.35;24.29;95901.25;5033054;28;20060;-70
2022/06/18 09:05:36;;;;;;;1999.90;999.90;;;;;;;29.98;24.10;95893.91;5033041;28;20040;-70
2022/06/18 09:08:23;;;;;;;1999.90;999.90;;;;;;;29.84;23.60;95903.09;5033164;28;20028;-70
2022/06/18 09:11:35;;;;;;;1999.90;999.90;;;;;;;30.32;24.48;95902.09;5031445;28;20029;-70
2022/06/18 09:14:11;;;;;;;1999.90;999.90;;;;;;;31.28;24.04;95886.84;5033031;28;20449;-70
2022/06/18 09:16:44;;;;;;;1999.90;999.90;;;;;;;31.25;23.54;95889.63;5032844;28;20087;-70
2022/06/18 09:19:17;;;;;;;1999.90;999.90;;;;;;;30.14;22.66;95866.66;5032764;28;20014;-69
2022/06/18 09:21:51;;;;;;;1999.90;999.90;;;;;;;30.98;22.23;95870.50;5032215;28;20029;-71
2022/06/18 09:24:23;;;;;;;1999.90;999.90;;;;;;;30.73;22.39;95868.94;5032570;28;20030;-69
2022/06/18 09:26:55;;;;;;;1999.90;999.90;;;;;;;31.15;22.87;95888.63;5032850;28;20123;-70
2022/06/18 09:29:35;;;;;;;1999.90;999.90;;;;;;;30.73;22.90;95851.69;5032607;28;20026;-69
2022/06/18 09:32:13;;;;;;;1999.90;999.90;;;;;;;31.57;21.68;95836.81;5032183;28;20026;-70
2022/06/18 09:35:11;;;;;;;1999.90;999.90;;;;;;;32.15;20.79;95869.44;5032531;28;20125;-70
2022/06/18 09:37:56;;;;;;;1999.90;999.90;;;;;;;30.70;19.82;95897.22;5032334;28;20029;-70
2022/06/18 09:40:45;;;;;;;1999.90;999.90;;;;;;;29.52;22.33;95848.59;5031856;28;20025;-71
2022/06/18 09:43:19;;;;;;;1999.90;999.90;;;;;;;30.00;22.66;95877.81;5028689;28;20095;-70
2022/06/18 09:45:49;;;;;;;1999.90;999.90;;;;;;;30.90;22.40;95899.25;5032297;28;20492;-70
2022/06/18 09:48:14;;;;;;;1999.90;999.90;;;;;;;31.41;21.17;95881.50;5031663;28;20554;-70
2022/06/18 09:50:45;;;;;;;1999.90;999.90;;;;;;;31.06;21.45;95845.19;5031729;28;20104;-70
2022/06/18 09:53:34;;;;;;;1999.90;999.90;;;;;;;32.14;20.57;95885.13;5032189;28;20104;-70
2022/06/18 09:56:16;;;;;;;1999.90;999.90;;;;;;;32.13;20.87;95841.53;5032093;28;20493;-70
2022/06/18 09:58:49;;;;;;;1999.90;999.90;;;;;;;32.21;21.77;95879.50;5032106;28;20022;-70
2022/06/18 10:01:20;;;;;;;1999.90;999.90;;;;;;;30.91;21.28;95865.09;5032051;28;20044;-70
2022/06/18 10:06:55;;;;;;;1999.90;999.90;;;;;;;30.95;20.64;95874.84;5031871;28;20041;-70
2022/06/18 10:09:28;;;;;;;1999.90;999.90;;;;;;;31.61;20.39;95875.22;5031994;28;20025;-70
2022/06/18 10:11:53;;;;;;;1999.90;999.90;;;;;;;31.05;20.67;95824.41;5031367;28;20032;-71
2022/06/18 10:14:21;;;;;;;1999.90;999.90;;;;;;;31.88;19.41;95840.09;5031609;28;20029;-70
2022/06/18 10:16:57;;;;;;;1999.90;999.90;;;;;;;31.76;20.63;95871.78;5031869;28;20127;-70
2022/06/18 10:19:41;;;;;;;1999.90;999.90;;;;;;;31.34;19.81;95872.63;5031753;28;20033;-70
2022/06/18 10:22:37;;;;;;;1999.90;999.90;;;;;;;32.59;20.37;95863.28;5031419;28;20033;-70
2022/06/18 10:25:30;;;;;;;1999.90;999.90;;;;;;;31.21;21.02;95869.69;5031444;28;20033;-71
2022/06/18 10:28:17;;;;;;;1999.90;999.90;;;;;;;31.36;20.37;95854.50;5031473;28;20049;-71
2022/06/18 10:31:08;;;;;;;1999.90;999.90;;;;;;;31.86;20.04;95856.28;5030920;28;20036;-68
2022/06/18 10:33:53;;;;;;;1999.90;999.90;;;;;;;32.04;19.82;95851.16;5030058;28;20040;-70
2022/06/18 10:36:40;;;;;;;1999.90;999.90;;;;;;;32.16;20.33;95848.94;5031700;28;20105;-71
2022/06/18 10:39:53;;;;;;;1999.90;999.90;;;;;;;31.83;20.61;95852.38;5030243;28;20441;-71
2022/06/18 10:42:34;;;;;;;1999.90;999.90;;;;;;;31.73;20.55;95849.84;4969757;28;20078;-72
2022/06/18 10:45:17;;;;;;;1999.90;999.90;;;;;;;32.12;19.72;95851.00;5021378;28;20127;-71
2022/06/18 10:47:46;;;;;;;1999.90;999.90;;;;;;;32.00;19.62;95781.69;5031283;28;20033;-70
2022/06/18 10:50:16;;;;;;;1999.90;999.90;;;;;;;31.70;18.72;95807.47;5030685;28;20033;-70
2022/06/18 10:52:43;;;;;;;1999.90;999.90;;;;;;;32.72;18.55;95826.81;5030887;28;20080;-71
2022/06/18 10:55:19;;;;;;;1999.90;999.90;;;;;;;33.15;18.33;95832.00;5030995;28;20025;-71
2022/06/18 10:57:45;;;;;;;1999.90;999.90;;;;;;;33.35;18.25;95827.09;5031074;28;20470;-71
2022/06/18 11:00:27;;;;;;;1999.90;999.90;;;;;;;33.40;18.73;95825.03;5029785;28;20469;-70
2022/06/18 11:02:56;;;;;;;1999.90;999.90;;;;;;;33.74;18.73;95838.28;5030803;28;20031;-70
2022/06/18 11:05:36;;;;;;;1999.90;999.90;;;;;;;33.73;19.79;95817.41;5029674;28;20022;-70
2022/06/18 11:08:05;;;;;;;1999.90;999.90;;;;;;;33.97;18.22;95826.19;5030888;28;20493;-70
2022/06/18 11:10:37;;;;;;;1999.90;999.90;;;;;;;33.86;17.98;95799.66;5030269;28;20585;-70
2022/06/18 11:13:16;;;;;;;1999.90;999.90;;;;;;;33.15;19.39;95789.88;5029632;28;20171;-71
2022/06/18 11:15:41;;;;;;;1999.90;999.90;;;;;;;33.53;18.47;95765.19;5030648;28;20067;-70
2022/06/18 11:18:19;;;;;;;1999.90;999.90;;;;;;;33.96;18.76;95797.81;5030535;28;20101;-70